createdAt,value
2022-10-02T00:00:20.584Z,81.77
2022-10-02T00:02:51.734Z,81.86
2022-10-02T00:05:29.465Z,84.04
2022-10-02T00:08:02.114Z,84.95
2022-10-02T00:10:40.419Z,84.69
2022-10-02T00:13:08.849Z,85.15
2022-10-02T00:15:36.706Z,83.81
2022-10-02T00:18:10.054Z,84.72
2022-10-02T00:20:48.162Z,84.63
2022-10-02T00:23:22.031Z,84.10
2022-10-02T00:25:58.126Z,84.48
2022-10-02T00:28:31.711Z,84.45
2022-10-02T00:31:28.744Z,84.50
2022-10-02T00:34:21.988Z,83.48
2022-10-02T00:36:48.498Z,85.10
2022-10-02T00:39:27.395Z,84.66
2022-10-02T00:42:23.193Z,85.46
2022-10-02T00:45:27.282Z,84.00
2022-10-02T00:48:18.242Z,86.28
2022-10-02T00:51:26.226Z,85.30
2022-10-02T00:54:26.139Z,84.80
2022-10-02T00:56:53.880Z,85.70
2022-10-02T00:59:23.961Z,85.95
2022-10-02T01:01:59.776Z,86.48
2022-10-02T01:04:34.452Z,85.24
2022-10-02T01:07:01.417Z,85.15
2022-10-02T01:09:27.977Z,86.89
2022-10-02T01:11:54.758Z,84.84
2022-10-02T01:14:21.515Z,85.06
2022-10-02T01:16:48.168Z,83.97
2022-10-02T01:19:26.214Z,84.12
2022-10-02T01:21:59.440Z,84.38
2022-10-02T01:24:31.976Z,83.01
2022-10-02T01:26:58.873Z,83.75
2022-10-02T01:29:25.415Z,84.17
2022-10-02T01:31:52.031Z,84.32
2022-10-02T01:34:18.504Z,83.87
2022-10-02T01:36:45.248Z,85.23
2022-10-02T01:39:12.013Z,85.19
2022-10-02T01:41:42.072Z,84.32
2022-10-02T01:44:08.586Z,84.05
2022-10-02T01:46:38.460Z,84.89
2022-10-02T01:49:31.492Z,86.11
2022-10-02T01:52:41.541Z,84.66
2022-10-02T01:55:38.502Z,84.30
2022-10-02T01:58:17.291Z,83.18
2022-10-02T02:00:57.057Z,85.02
2022-10-02T02:03:44.984Z,84.58
2022-10-02T02:06:28.068Z,84.63
2022-10-02T02:09:09.764Z,83.75
2022-10-02T02:11:40.670Z,83.43
2022-10-02T02:14:14.482Z,85.96
2022-10-02T02:16:44.969Z,84.14
2022-10-02T02:19:19.583Z,83.64
2022-10-02T02:21:49.776Z,86.14
2022-10-02T02:24:38.651Z,85.25
2022-10-02T02:27:06.117Z,83.78
2022-10-02T02:29:34.934Z,83.82
2022-10-02T02:32:04.697Z,84.06
2022-10-02T02:34:40.698Z,84.92
2022-10-02T02:37:11.698Z,86.69
2022-10-02T02:39:46.738Z,84.87
2022-10-02T02:42:17.794Z,86.07
2022-10-02T02:44:49.899Z,85.53
2022-10-02T02:47:27.452Z,86.41
2022-10-02T02:50:03.359Z,86.31
2022-10-02T02:52:34.119Z,86.45
2022-10-02T02:55:02.295Z,86.06
2022-10-02T02:57:42.278Z,85.21
2022-10-02T03:00:09.291Z,84.16
2022-10-02T03:02:35.794Z,85.49
2022-10-02T03:05:02.260Z,85.99
2022-10-02T03:07:28.750Z,85.29
2022-10-02T03:10:04.299Z,85.46
2022-10-02T03:13:11.965Z,85.78
2022-10-02T03:16:04.879Z,83.97
2022-10-02T03:18:40.314Z,84.18
2022-10-02T03:21:13.106Z,84.48
2022-10-02T03:24:16.804Z,85.08
2022-10-02T03:27:13.505Z,85.78
2022-10-02T03:30:10.127Z,85.32
2022-10-02T03:32:38.142Z,84.04
2022-10-02T03:35:06.392Z,84.19
2022-10-02T03:37:32.907Z,86.81
2022-10-02T03:40:01.315Z,86.17
2022-10-02T03:42:31.079Z,84.75
2022-10-02T03:44:57.503Z,85.99
2022-10-02T03:47:24.031Z,85.67
2022-10-02T03:49:50.514Z,86.39
2022-10-02T03:52:18.930Z,87.63
2022-10-02T03:54:45.705Z,86.55
2022-10-02T03:57:21.294Z,86.89
2022-10-02T03:59:53.692Z,87.31
2022-10-02T04:02:38.222Z,86.90
2022-10-02T04:05:15.464Z,86.25
2022-10-02T04:07:43.609Z,86.46
2022-10-02T04:10:13.029Z,86.30
2022-10-02T04:12:43.608Z,85.62
2022-10-02T04:15:17.304Z,85.75
2022-10-02T04:17:59.361Z,86.18
2022-10-02T04:20:34.989Z,88.85
2022-10-02T04:23:15.536Z,86.83
2022-10-02T04:25:45.478Z,88.79
2022-10-02T04:28:15.324Z,85.93
2022-10-02T04:30:41.850Z,85.37
2022-10-02T04:33:14.699Z,86.33
2022-10-02T04:36:00.780Z,84.91
2022-10-02T04:38:36.300Z,84.68
2022-10-02T04:41:12.123Z,83.56
2022-10-02T04:43:53.857Z,84.03
2022-10-02T04:46:23.357Z,83.93
2022-10-02T04:48:59.038Z,84.48
2022-10-02T04:51:31.577Z,85.10
2022-10-02T04:54:07.081Z,85.25
2022-10-02T04:56:52.670Z,84.06
2022-10-02T04:59:31.562Z,84.79
2022-10-02T05:02:21.553Z,84.93
2022-10-02T05:05:25.838Z,84.23
2022-10-02T05:08:07.489Z,83.53
2022-10-02T05:10:46.415Z,84.91
2022-10-02T05:13:38.501Z,84.43
2022-10-02T05:16:26.776Z,84.50
2022-10-02T05:19:17.376Z,84.08
2022-10-02T05:21:46.874Z,85.37
2022-10-02T05:24:27.904Z,85.30
2022-10-02T05:27:19.567Z,83.87
2022-10-02T05:29:52.127Z,85.10
2022-10-02T05:32:52.623Z,85.83
2022-10-02T05:35:56.621Z,86.32
2022-10-02T05:38:54.656Z,85.99
2022-10-02T05:41:39.332Z,86.08
2022-10-02T05:44:27.259Z,84.83
2022-10-02T05:46:56.827Z,84.96
2022-10-02T05:49:28.504Z,84.30
2022-10-02T05:52:05.591Z,82.98
2022-10-02T05:54:44.401Z,85.32
2022-10-02T05:57:16.967Z,84.05
2022-10-02T06:00:02.443Z,82.66
2022-10-02T06:02:47.166Z,83.47
2022-10-02T06:05:41.899Z,82.32
2022-10-02T06:08:11.685Z,83.45
2022-10-02T06:10:45.390Z,83.75
2022-10-02T06:13:24.057Z,82.86
2022-10-02T06:16:05.564Z,85.04
2022-10-02T06:18:33.665Z,84.75
2022-10-02T06:21:05.984Z,82.86
2022-10-02T06:23:41.120Z,84.05
2022-10-02T06:26:13.229Z,83.11
2022-10-02T06:29:07.416Z,85.32
2022-10-02T06:31:51.520Z,86.43
2022-10-02T06:34:18.209Z,86.11
2022-10-02T06:36:55.292Z,85.59
2022-10-02T06:39:34.405Z,86.26
2022-10-02T06:42:14.050Z,85.89
2022-10-02T06:45:18.915Z,86.52
2022-10-02T06:48:00.611Z,85.31
2022-10-02T06:50:28.138Z,85.51
2022-10-02T06:53:25.200Z,86.06
2022-10-02T06:56:15.660Z,84.89
2022-10-02T06:59:14.383Z,85.03
2022-10-02T07:01:57.158Z,83.70
2022-10-02T07:04:42.312Z,84.05
2022-10-02T07:07:25.168Z,85.85
2022-10-02T07:10:00.307Z,83.12
2022-10-02T07:13:12.649Z,84.61
2022-10-02T07:15:49.869Z,83.47
2022-10-02T07:18:52.705Z,84.06
2022-10-02T07:21:50.385Z,84.87
2022-10-02T07:24:25.776Z,84.54
2022-10-02T07:27:24.564Z,85.30
2022-10-02T07:30:17.788Z,85.76
2022-10-02T07:32:48.771Z,85.04
2022-10-02T07:35:38.789Z,86.05
2022-10-02T07:38:17.296Z,83.38
2022-10-02T07:41:14.300Z,85.59
2022-10-02T07:43:58.987Z,85.72
2022-10-02T07:46:38.556Z,86.60
2022-10-02T07:49:36.697Z,87.15
2022-10-02T07:52:06.236Z,88.23
2022-10-02T07:54:49.079Z,87.64
2022-10-02T07:57:18.758Z,86.79
2022-10-02T07:59:46.777Z,87.10
2022-10-02T08:02:22.438Z,85.15
2022-10-02T08:04:49.262Z,85.11
2022-10-02T08:07:15.848Z,84.45
2022-10-02T08:09:49.303Z,85.26
2022-10-02T08:12:23.738Z,85.80
2022-10-02T08:14:52.789Z,84.86
2022-10-02T08:17:22.157Z,85.36
2022-10-02T08:19:50.905Z,83.61
2022-10-02T08:22:25.090Z,84.35
2022-10-02T08:25:00.156Z,85.07
2022-10-02T08:27:46.957Z,84.58
2022-10-02T08:30:14.921Z,85.17
2022-10-02T08:32:41.453Z,84.37
2022-10-02T08:35:16.840Z,85.59
2022-10-02T08:38:26.548Z,83.49
2022-10-02T08:41:12.917Z,84.08
2022-10-02T08:43:54.028Z,82.91
2022-10-02T08:46:58.745Z,83.95
2022-10-02T08:49:52.677Z,85.09
2022-10-02T08:52:37.527Z,85.23
2022-10-02T08:55:44.385Z,85.45
2022-10-02T08:58:35.691Z,84.82
2022-10-02T09:01:23.470Z,85.18
2022-10-02T09:04:20.865Z,83.07
2022-10-02T09:06:59.438Z,82.81
2022-10-02T09:10:02.504Z,83.11
2022-10-02T09:12:41.736Z,82.86
2022-10-02T09:15:19.329Z,81.77
2022-10-02T09:17:55.507Z,80.83
2022-10-02T09:20:40.966Z,81.44
2022-10-02T09:23:22.646Z,80.39
2022-10-02T09:25:52.596Z,80.63
2022-10-02T09:28:34.459Z,80.25
2022-10-02T09:31:42.951Z,80.45
2022-10-02T09:34:47.514Z,79.02
2022-10-02T09:37:44.120Z,79.77
2022-10-02T09:40:13.642Z,79.63
2022-10-02T09:42:59.420Z,78.17
2022-10-02T09:45:51.384Z,75.86
2022-10-02T09:48:40.888Z,75.72
2022-10-02T09:51:31.881Z,75.11
2022-10-02T09:54:27.813Z,74.88
2022-10-02T09:57:20.010Z,74.03
2022-10-02T10:00:12.121Z,74.98
2022-10-02T10:02:47.982Z,74.28
2022-10-02T10:05:36.265Z,75.26
2022-10-02T10:08:17.898Z,74.82
2022-10-02T10:11:06.337Z,74.98
2022-10-02T10:13:45.085Z,76.33
2022-10-02T10:16:35.597Z,75.92
2022-10-02T10:19:26.233Z,76.41
2022-10-02T10:22:23.633Z,75.40
2022-10-02T10:24:53.174Z,74.55
2022-10-02T10:27:50.663Z,73.10
2022-10-02T10:30:43.415Z,71.56
2022-10-02T10:33:25.017Z,73.29
2022-10-02T10:36:47.727Z,72.25
2022-10-02T10:39:48.028Z,73.32
2022-10-02T10:42:49.926Z,73.03
2022-10-02T10:45:45.093Z,73.45
2022-10-02T10:48:18.773Z,72.74
2022-10-02T10:51:00.503Z,70.50
2022-10-02T10:53:45.438Z,69.05
2022-10-02T10:56:17.682Z,68.68
2022-10-02T10:58:55.706Z,68.93
2022-10-02T11:02:01.345Z,68.57
2022-10-02T11:04:54.054Z,67.13
2022-10-02T11:07:34.725Z,66.32
2022-10-02T11:10:29.426Z,66.60
2022-10-02T11:13:05.802Z,66.79
2022-10-02T11:15:44.848Z,68.39
2022-10-02T11:18:34.632Z,68.27
2022-10-02T11:21:20.751Z,66.92
2022-10-02T11:24:09.927Z,65.31
2022-10-02T11:26:51.034Z,65.31
2022-10-02T11:29:35.868Z,66.67
2022-10-02T11:32:17.761Z,67.25
2022-10-02T11:34:59.045Z,66.76
2022-10-02T11:37:40.855Z,67.17
2022-10-02T11:40:49.410Z,65.60
2022-10-02T11:43:46.794Z,65.94
2022-10-02T11:46:22.387Z,65.04
2022-10-02T11:49:02.341Z,64.93
2022-10-02T11:51:47.680Z,64.97
2022-10-02T11:54:22.028Z,65.08
2022-10-02T11:57:19.497Z,63.41
2022-10-02T12:00:13.473Z,64.33
2022-10-02T12:02:55.244Z,64.34
2022-10-02T12:05:54.756Z,63.96
2022-10-02T12:08:41.238Z,63.59
2022-10-02T12:11:15.137Z,60.87
2022-10-02T12:14:01.245Z,60.68
2022-10-02T12:16:36.256Z,61.47
2022-10-02T12:19:21.597Z,62.33
2022-10-02T12:22:13.293Z,63.15
2022-10-02T12:24:58.182Z,61.77
2022-10-02T12:27:42.735Z,65.32
2022-10-02T12:30:19.091Z,68.36
2022-10-02T12:33:09.672Z,73.21
2022-10-02T12:35:57.416Z,74.48
2022-10-02T12:38:34.146Z,75.57
2022-10-02T12:41:08.031Z,74.87
2022-10-02T12:44:07.050Z,74.47
2022-10-02T12:47:04.924Z,73.59
2022-10-02T12:49:40.629Z,72.22
2022-10-02T12:52:16.141Z,71.57
2022-10-02T12:54:54.278Z,69.49
2022-10-02T12:57:51.894Z,70.33
2022-10-02T13:00:20.712Z,68.78
2022-10-02T13:03:21.511Z,68.91
2022-10-02T13:05:54.015Z,69.91
2022-10-02T13:08:39.778Z,69.08
2022-10-02T13:11:24.402Z,69.25
2022-10-02T13:14:12.367Z,66.53
2022-10-02T13:16:45.088Z,65.47
2022-10-02T13:19:40.665Z,66.57
2022-10-02T13:22:17.419Z,68.41
2022-10-02T13:24:49.909Z,68.58
2022-10-02T13:27:38.091Z,68.15
2022-10-02T13:30:18.519Z,67.98
2022-10-02T13:32:45.057Z,68.65
2022-10-02T13:35:32.444Z,69.62
2022-10-02T13:38:18.907Z,69.54
2022-10-02T13:40:54.420Z,69.38
2022-10-02T13:43:30.284Z,69.88
2022-10-02T13:46:09.901Z,69.35
2022-10-02T13:49:15.737Z,69.20
2022-10-02T13:52:03.060Z,68.84
2022-10-02T13:54:49.968Z,70.03
2022-10-02T13:57:50.879Z,69.45
2022-10-02T14:00:39.217Z,68.90
2022-10-02T14:03:14.556Z,70.30
2022-10-02T14:05:48.896Z,71.13
2022-10-02T14:08:19.569Z,69.08
2022-10-02T14:11:11.518Z,70.15
2022-10-02T14:14:15.232Z,69.87
2022-10-02T14:17:03.821Z,70.70
2022-10-02T14:19:43.120Z,70.56
2022-10-02T14:22:19.405Z,69.94
2022-10-02T14:24:59.933Z,68.90
2022-10-02T14:28:02.290Z,67.96
2022-10-02T14:30:53.995Z,66.37
2022-10-02T14:33:23.332Z,65.71
2022-10-02T14:36:07.184Z,66.38
2022-10-02T14:38:58.071Z,65.75
2022-10-02T14:41:50.358Z,67.40
2022-10-02T14:44:30.165Z,66.78
2022-10-02T14:47:31.817Z,66.92
2022-10-02T14:50:40.311Z,66.46
2022-10-02T14:53:40.464Z,65.15
2022-10-02T14:56:13.471Z,67.32
2022-10-02T14:58:58.782Z,66.51
2022-10-02T15:01:29.112Z,67.89
2022-10-02T15:04:22.531Z,68.59
2022-10-02T15:07:11.211Z,68.57
2022-10-02T15:10:08.758Z,67.79
2022-10-02T15:12:44.013Z,67.59
2022-10-02T15:15:24.425Z,67.27
2022-10-02T15:18:12.942Z,67.94
2022-10-02T15:21:00.809Z,67.75
2022-10-02T15:23:33.562Z,66.81
2022-10-02T15:26:24.172Z,68.13
2022-10-02T15:28:53.646Z,67.32
2022-10-02T15:31:26.425Z,67.59
2022-10-02T15:33:56.459Z,68.27
2022-10-02T15:36:39.586Z,69.18
2022-10-02T15:39:18.115Z,66.96
2022-10-02T15:42:06.782Z,68.74
2022-10-02T15:44:42.393Z,67.82
2022-10-02T15:47:23.074Z,69.46
2022-10-02T15:50:14.433Z,67.67
2022-10-02T15:53:18.119Z,69.54
2022-10-02T15:56:13.805Z,69.07
2022-10-02T15:59:04.921Z,68.67
2022-10-02T16:01:54.931Z,70.33
2022-10-02T16:04:50.587Z,69.73
2022-10-02T16:07:41.879Z,70.11
2022-10-02T16:10:24.678Z,69.73
2022-10-02T16:13:26.724Z,70.43
2022-10-02T16:15:56.537Z,72.24
2022-10-02T16:19:01.212Z,71.89
2022-10-02T16:21:53.353Z,72.94
2022-10-02T16:24:52.181Z,72.31
2022-10-02T16:27:33.472Z,72.92
2022-10-02T16:30:11.902Z,74.06
2022-10-02T16:32:53.880Z,71.51
2022-10-02T16:35:48.731Z,74.44
2022-10-02T16:38:19.103Z,73.14
2022-10-02T16:40:57.127Z,75.50
2022-10-02T16:43:32.014Z,76.41
2022-10-02T16:46:17.447Z,76.95
2022-10-02T16:48:55.209Z,76.35
2022-10-02T16:51:34.173Z,76.70
2022-10-02T16:54:23.994Z,76.90
2022-10-02T16:57:01.640Z,75.39
2022-10-02T16:59:49.510Z,75.02
2022-10-02T17:02:23.130Z,76.05
2022-10-02T17:05:08.618Z,73.34
2022-10-02T17:07:55.249Z,75.90
2022-10-02T17:10:29.094Z,74.28
2022-10-02T17:13:16.215Z,74.27
2022-10-02T17:15:49.452Z,73.75
2022-10-02T17:18:26.779Z,73.20
2022-10-02T17:21:17.699Z,73.98
2022-10-02T17:23:54.380Z,74.49
2022-10-02T17:26:44.786Z,76.17
2022-10-02T17:29:19.683Z,76.22
2022-10-02T17:31:52.001Z,75.08
2022-10-02T17:34:22.938Z,76.08
2022-10-02T17:37:14.325Z,74.47
2022-10-02T17:39:49.811Z,74.26
2022-10-02T17:42:42.476Z,75.13
2022-10-02T17:45:38.871Z,75.54
2022-10-02T17:48:39.578Z,77.59
2022-10-02T17:51:59.005Z,75.88
2022-10-02T17:55:22.468Z,76.47
2022-10-02T17:58:20.332Z,76.72
2022-10-02T18:01:05.724Z,76.05
2022-10-02T18:03:41.533Z,74.79
2022-10-02T18:06:14.025Z,75.69
2022-10-02T18:08:45.373Z,77.10
2022-10-02T18:11:30.870Z,77.10
2022-10-02T18:14:06.365Z,77.33
2022-10-02T18:17:15.599Z,77.20
2022-10-02T18:19:41.990Z,77.08
2022-10-02T18:22:12.197Z,76.94
2022-10-02T18:25:12.532Z,77.20
2022-10-02T18:28:01.467Z,76.15
2022-10-02T18:30:43.727Z,77.10
2022-10-02T18:33:14.526Z,76.74
2022-10-02T18:35:47.277Z,78.88
2022-10-02T18:38:32.604Z,76.71
2022-10-02T18:41:26.468Z,76.85
2022-10-02T18:44:08.582Z,78.17
2022-10-02T18:46:37.834Z,78.26
2022-10-02T18:49:22.700Z,76.65
2022-10-02T18:51:49.156Z,78.43
2022-10-02T18:54:27.703Z,77.84
2022-10-02T18:57:09.712Z,77.44
2022-10-02T18:59:46.037Z,78.80
2022-10-02T19:02:30.628Z,79.27
2022-10-02T19:05:03.667Z,79.51
2022-10-02T19:07:41.628Z,79.99
2022-10-02T19:10:30.469Z,78.42
2022-10-02T19:13:17.613Z,79.21
2022-10-02T19:15:46.708Z,79.45
2022-10-02T19:18:39.806Z,78.73
2022-10-02T19:21:11.571Z,79.14
2022-10-02T19:23:41.543Z,79.82
2022-10-02T19:26:23.645Z,79.86
2022-10-02T19:29:03.048Z,79.92
2022-10-02T19:31:31.535Z,78.51
2022-10-02T19:34:17.864Z,79.80
2022-10-02T19:36:50.459Z,80.63
2022-10-02T19:39:35.815Z,80.14
2022-10-02T19:42:29.873Z,80.00
2022-10-02T19:44:57.307Z,80.68
2022-10-02T19:47:32.082Z,80.49
2022-10-02T19:50:00.571Z,80.49
2022-10-02T19:52:36.001Z,80.65
2022-10-02T19:55:16.344Z,80.41
2022-10-02T19:57:44.086Z,81.53
2022-10-02T20:00:16.081Z,81.88
2022-10-02T20:02:53.046Z,80.82
2022-10-02T20:05:25.593Z,80.82
2022-10-02T20:08:02.920Z,82.58
2022-10-02T20:10:38.728Z,82.54
2022-10-02T20:13:07.712Z,81.91
2022-10-02T20:16:03.523Z,82.06
2022-10-02T20:18:30.968Z,83.11
2022-10-02T20:21:07.339Z,82.63
2022-10-02T20:23:35.050Z,82.51
2022-10-02T20:26:08.997Z,82.32
2022-10-02T20:28:43.774Z,82.29
2022-10-02T20:31:47.544Z,83.09
2022-10-02T20:34:42.271Z,81.29
2022-10-02T20:37:14.548Z,82.04
2022-10-02T20:39:47.365Z,83.42
2022-10-02T20:42:25.302Z,84.33
2022-10-02T20:44:51.748Z,83.73
2022-10-02T20:47:27.996Z,82.30
2022-10-02T20:50:00.630Z,84.89
2022-10-02T20:52:57.225Z,83.38
2022-10-02T20:56:01.260Z,84.33
2022-10-02T20:58:31.146Z,82.39
2022-10-02T21:01:14.885Z,82.74
2022-10-02T21:03:50.553Z,82.95
2022-10-02T21:06:42.161Z,83.44
2022-10-02T21:09:15.095Z,82.74
2022-10-02T21:12:26.919Z,81.76
2022-10-02T21:15:13.216Z,85.05
2022-10-02T21:18:01.885Z,82.42
2022-10-02T21:21:05.074Z,82.26
2022-10-02T21:24:02.722Z,82.44
2022-10-02T21:26:47.440Z,83.01
2022-10-02T21:29:29.111Z,83.39
2022-10-02T21:31:56.518Z,83.74
2022-10-02T21:34:47.316Z,84.23
2022-10-02T21:37:44.946Z,83.69
2022-10-02T21:40:35.691Z,85.21
2022-10-02T21:43:17.709Z,84.20
2022-10-02T21:46:02.525Z,83.55
2022-10-02T21:49:14.149Z,83.39
2022-10-02T21:51:53.656Z,84.07
2022-10-02T21:54:47.822Z,83.25
2022-10-02T21:57:49.020Z,84.09
2022-10-02T22:00:25.169Z,83.39
2022-10-02T22:03:16.528Z,82.86
2022-10-02T22:05:52.588Z,84.21
2022-10-02T22:08:40.366Z,82.87
2022-10-02T22:11:18.414Z,82.91
2022-10-02T22:13:45.102Z,83.75
2022-10-02T22:16:57.724Z,84.45
2022-10-02T22:19:34.265Z,83.43
2022-10-02T22:22:04.010Z,84.11
2022-10-02T22:24:46.242Z,84.37
2022-10-02T22:27:34.709Z,83.23
2022-10-02T22:30:01.289Z,84.13
2022-10-02T22:33:13.395Z,82.51
2022-10-02T22:35:52.168Z,82.24
2022-10-02T22:38:37.761Z,83.30
2022-10-02T22:41:07.023Z,83.26
2022-10-02T22:43:45.615Z,83.13
2022-10-02T22:46:35.662Z,83.78
2022-10-02T22:49:18.711Z,84.85
2022-10-02T22:52:20.744Z,83.58
2022-10-02T22:55:07.266Z,83.19
2022-10-02T22:58:09.397Z,83.24
2022-10-02T23:01:02.860Z,84.12
2022-10-02T23:03:57.717Z,84.56
2022-10-02T23:06:34.949Z,84.98
2022-10-02T23:09:06.300Z,84.63
2022-10-02T23:11:42.027Z,83.52
2022-10-02T23:14:20.506Z,83.74
2022-10-02T23:16:51.581Z,82.82
2022-10-02T23:19:18.304Z,84.02
2022-10-02T23:22:01.559Z,83.78
2022-10-02T23:24:32.552Z,83.96
2022-10-02T23:27:10.879Z,83.84
2022-10-02T23:29:53.974Z,84.09
2022-10-02T23:32:31.657Z,85.61
2022-10-02T23:35:35.450Z,84.70
2022-10-02T23:38:23.860Z,84.33
2022-10-02T23:41:26.877Z,83.03
2022-10-02T23:44:04.931Z,84.40
2022-10-02T23:47:05.842Z,84.21
2022-10-02T23:50:03.758Z,83.59
2022-10-02T23:52:33.645Z,83.23
2022-10-02T23:55:06.074Z,83.30
2022-10-02T23:58:00.455Z,83.97
